createdAt,value
2023-06-07T00:02:33.057Z,78.06
2023-06-07T00:05:10.856Z,78.26
2023-06-07T00:07:40.009Z,78.41
2023-06-07T00:10:09.708Z,79.14
2023-06-07T00:12:38.498Z,78.91
2023-06-07T00:15:09.042Z,78.35
2023-06-07T00:17:42.594Z,78.48
2023-06-07T00:20:14.501Z,78.94
2023-06-07T00:22:43.584Z,79.47
2023-06-07T00:25:12.337Z,80.38
2023-06-07T00:27:41.278Z,80.89
2023-06-07T00:30:10.465Z,80.09
2023-06-07T00:32:38.930Z,79.78
2023-06-07T00:35:08.947Z,79.90
2023-06-07T00:37:37.513Z,80.42
2023-06-07T00:40:08.184Z,80.69
2023-06-07T00:42:36.844Z,80.04
2023-06-07T00:45:06.379Z,80.16
2023-06-07T00:47:36.910Z,80.29
2023-06-07T00:50:07.364Z,80.84
2023-06-07T00:52:37.664Z,80.47
2023-06-07T00:55:06.922Z,80.59
2023-06-07T00:57:36.930Z,80.72
2023-06-07T01:00:11.436Z,80.86
2023-06-07T01:02:40.976Z,81.12
2023-06-07T01:05:10.223Z,81.57
2023-06-07T01:07:39.103Z,81.37
2023-06-07T01:10:09.548Z,82.29
2023-06-07T01:12:39.865Z,82.21
2023-06-07T01:15:09.263Z,82.32
2023-06-07T01:17:42.701Z,82.26
2023-06-07T01:20:22.879Z,82.52
2023-06-07T01:22:59.387Z,82.75
2023-06-07T01:25:28.350Z,82.59
2023-06-07T01:27:58.560Z,83.00
2023-06-07T01:30:33.137Z,82.56
2023-06-07T01:33:05.770Z,83.19
2023-06-07T01:35:36.656Z,83.24
2023-06-07T01:38:06.155Z,83.37
2023-06-07T01:40:36.478Z,83.43
2023-06-07T01:43:06.638Z,83.58
2023-06-07T01:45:35.569Z,83.13
2023-06-07T01:48:05.042Z,83.47
2023-06-07T01:50:34.100Z,83.08
2023-06-07T01:53:02.881Z,83.44
2023-06-07T01:55:31.986Z,83.91
2023-06-07T01:58:36.214Z,83.55
2023-06-07T02:01:27.436Z,83.88
2023-06-07T02:03:57.291Z,84.06
2023-06-07T02:06:34.056Z,84.04
2023-06-07T02:09:11.822Z,84.14
2023-06-07T02:11:42.352Z,84.39
2023-06-07T02:14:11.285Z,85.64
2023-06-07T02:16:41.425Z,85.13
2023-06-07T02:19:12.700Z,85.21
2023-06-07T02:21:51.980Z,84.70
2023-06-07T02:24:21.111Z,84.23
2023-06-07T02:26:49.759Z,84.57
2023-06-07T02:29:18.712Z,85.04
2023-06-07T02:31:51.457Z,85.97
2023-06-07T02:34:20.494Z,86.44
2023-06-07T02:36:49.076Z,86.03
2023-06-07T02:39:17.729Z,85.62
2023-06-07T02:41:46.875Z,85.51
2023-06-07T02:44:15.593Z,85.87
2023-06-07T02:46:44.521Z,85.61
2023-06-07T02:49:13.607Z,85.72
2023-06-07T02:51:43.484Z,85.55
2023-06-07T02:54:12.549Z,85.89
2023-06-07T02:56:41.414Z,86.00
2023-06-07T02:59:09.891Z,86.37
2023-06-07T03:01:41.021Z,86.58
2023-06-07T03:04:10.160Z,87.30
2023-06-07T03:06:42.888Z,87.56
2023-06-07T03:09:26.330Z,87.26
2023-06-07T03:11:55.473Z,86.96
2023-06-07T03:14:25.294Z,87.20
2023-06-07T03:16:54.988Z,86.90
2023-06-07T03:19:24.046Z,86.79
2023-06-07T03:21:55.248Z,87.11
2023-06-07T03:24:25.028Z,86.67
2023-06-07T03:26:54.449Z,86.75
2023-06-07T03:29:23.916Z,86.33
2023-06-07T03:31:53.077Z,86.44
2023-06-07T03:34:22.190Z,86.80
2023-06-07T03:36:51.013Z,86.62
2023-06-07T03:39:19.947Z,86.44
2023-06-07T03:41:48.936Z,86.36
2023-06-07T03:44:21.109Z,86.14
2023-06-07T03:46:49.973Z,86.39
2023-06-07T03:49:18.665Z,85.99
2023-06-07T03:51:48.193Z,85.78
2023-06-07T03:54:17.596Z,85.45
2023-06-07T03:56:46.498Z,85.51
2023-06-07T03:59:16.812Z,85.55
2023-06-07T04:01:45.815Z,85.49
2023-06-07T04:04:16.369Z,85.26
2023-06-07T04:06:46.009Z,85.39
2023-06-07T04:09:17.042Z,85.62
2023-06-07T04:11:45.986Z,85.51
2023-06-07T04:14:14.938Z,85.33
2023-06-07T04:16:44.438Z,85.44
2023-06-07T04:19:13.986Z,85.02
2023-06-07T04:21:42.986Z,84.51
2023-06-07T04:24:14.998Z,84.82
2023-06-07T04:26:46.341Z,84.64
2023-06-07T04:29:16.318Z,84.52
2023-06-07T04:31:45.041Z,83.85
2023-06-07T04:34:19.057Z,83.64
2023-06-07T04:36:50.606Z,83.89
2023-06-07T04:39:22.015Z,83.41
2023-06-07T04:41:54.595Z,83.00
2023-06-07T04:44:30.611Z,82.69
2023-06-07T04:47:13.039Z,82.84
2023-06-07T04:49:42.323Z,82.29
2023-06-07T04:52:13.909Z,82.05
2023-06-07T04:54:48.500Z,81.47
2023-06-07T04:57:19.478Z,80.96
2023-06-07T04:59:50.162Z,80.68
2023-06-07T05:02:25.175Z,80.10
2023-06-07T05:04:55.023Z,79.80
2023-06-07T05:07:29.187Z,78.70
2023-06-07T05:09:58.114Z,77.46
2023-06-07T05:12:27.026Z,77.14
2023-06-07T05:14:55.355Z,76.25
2023-06-07T05:17:25.597Z,76.00
2023-06-07T05:19:55.591Z,75.66
2023-06-07T05:22:24.518Z,75.46
2023-06-07T05:24:53.069Z,75.10
2023-06-07T05:27:21.726Z,75.53
2023-06-07T05:29:50.302Z,75.17
2023-06-07T05:32:19.084Z,75.00
2023-06-07T05:34:50.295Z,74.58
2023-06-07T05:37:19.699Z,73.39
2023-06-07T05:39:49.293Z,72.83
2023-06-07T05:42:17.779Z,72.03
2023-06-07T05:44:50.362Z,71.97
2023-06-07T05:47:26.737Z,70.64
2023-06-07T05:49:55.513Z,69.29
2023-06-07T05:52:24.409Z,68.88
2023-06-07T05:54:55.669Z,68.85
2023-06-07T05:57:24.455Z,67.98
2023-06-07T05:59:52.984Z,67.12
2023-06-07T06:02:22.234Z,63.88
2023-06-07T06:04:55.252Z,63.35
2023-06-07T06:07:24.106Z,62.90
2023-06-07T06:09:52.730Z,62.69
2023-06-07T06:12:21.684Z,59.71
2023-06-07T06:14:50.600Z,59.79
2023-06-07T06:17:19.210Z,59.43
2023-06-07T06:19:47.844Z,58.89
2023-06-07T06:22:16.236Z,56.58
2023-06-07T06:24:45.635Z,56.30
2023-06-07T06:27:14.323Z,57.40
2023-06-07T06:29:42.749Z,56.30
2023-06-07T06:32:11.598Z,56.33
2023-06-07T06:34:40.522Z,56.06
2023-06-07T06:37:08.889Z,55.99
2023-06-07T06:39:37.395Z,54.93
2023-06-07T06:42:07.147Z,52.89
2023-06-07T06:44:45.376Z,53.91
2023-06-07T06:47:14.576Z,51.94
2023-06-07T06:49:43.174Z,52.53
2023-06-07T06:52:11.665Z,52.74
2023-06-07T06:54:40.337Z,51.36
2023-06-07T06:57:09.677Z,50.00
2023-06-07T06:59:38.323Z,50.87
2023-06-07T07:02:07.467Z,50.34
2023-06-07T07:04:36.669Z,49.28
2023-06-07T07:07:06.239Z,49.28
2023-06-07T07:09:35.529Z,48.00
2023-06-07T07:12:04.627Z,47.68
2023-06-07T07:14:33.214Z,47.24
2023-06-07T07:17:02.275Z,45.00
2023-06-07T07:19:30.898Z,46.19
2023-06-07T07:21:59.529Z,44.15
2023-06-07T07:24:28.476Z,43.41
2023-06-07T07:26:57.634Z,43.91
2023-06-07T07:29:29.055Z,43.72
2023-06-07T07:31:58.139Z,42.95
2023-06-07T07:34:26.586Z,41.63
2023-06-07T07:36:57.255Z,40.79
2023-06-07T07:40:07.472Z,39.28
2023-06-07T07:43:16.493Z,40.22
2023-06-07T07:46:25.012Z,41.56
2023-06-07T07:49:35.946Z,38.04
2023-06-07T07:52:45.473Z,35.41
2023-06-07T07:55:53.597Z,35.72
2023-06-07T07:59:02.020Z,35.24
2023-06-07T08:02:36.044Z,35.31
2023-06-07T08:05:05.973Z,33.51
2023-06-07T08:07:34.743Z,31.82
2023-06-07T08:10:03.446Z,35.08
2023-06-07T08:12:35.034Z,35.24
2023-06-07T08:15:04.831Z,33.82
2023-06-07T08:17:33.836Z,33.38
2023-06-07T08:20:06.397Z,35.11
2023-06-07T08:22:39.106Z,32.65
2023-06-07T08:25:08.570Z,33.39
2023-06-07T08:27:37.345Z,33.77
2023-06-07T08:30:07.998Z,33.07
2023-06-07T08:32:36.960Z,34.20
2023-06-07T08:35:07.449Z,33.99
2023-06-07T08:37:36.309Z,32.65
2023-06-07T08:40:07.387Z,32.76
2023-06-07T08:42:39.100Z,31.74
2023-06-07T08:45:08.216Z,33.08
2023-06-07T08:47:37.583Z,31.87
2023-06-07T08:50:10.995Z,31.23
2023-06-07T08:52:42.924Z,32.48
2023-06-07T08:55:14.747Z,30.99
2023-06-07T08:57:47.560Z,30.80
2023-06-07T09:00:16.711Z,32.24
2023-06-07T09:02:45.956Z,31.09
2023-06-07T09:05:15.208Z,31.60
2023-06-07T09:07:43.897Z,31.28
2023-06-07T09:10:14.648Z,31.27
2023-06-07T09:12:48.035Z,31.36
2023-06-07T09:15:22.009Z,31.63
2023-06-07T09:18:03.767Z,30.89
2023-06-07T09:20:33.093Z,30.01
2023-06-07T09:23:10.643Z,30.82
2023-06-07T09:25:39.655Z,30.29
2023-06-07T09:28:12.928Z,31.03
2023-06-07T09:31:07.694Z,31.58
2023-06-07T09:33:36.918Z,31.52
2023-06-07T09:36:17.152Z,30.47
2023-06-07T09:38:46.918Z,27.91
2023-06-07T09:41:15.279Z,29.18
2023-06-07T09:43:48.464Z,29.84
2023-06-07T09:46:18.446Z,29.05
2023-06-07T09:48:49.668Z,27.84
2023-06-07T09:51:20.822Z,28.91
2023-06-07T09:53:58.422Z,27.72
2023-06-07T09:56:27.241Z,28.73
2023-06-07T09:59:15.175Z,27.49
2023-06-07T10:01:47.739Z,27.83
2023-06-07T10:04:16.733Z,29.00
2023-06-07T10:06:47.092Z,28.78
2023-06-07T10:09:19.174Z,27.32
2023-06-07T10:11:50.881Z,28.22
2023-06-07T10:14:20.864Z,28.70
2023-06-07T10:16:56.006Z,29.76
2023-06-07T10:19:32.996Z,29.21
2023-06-07T10:22:02.437Z,29.38
2023-06-07T10:24:37.835Z,29.44
2023-06-07T10:27:19.245Z,28.33
2023-06-07T10:30:02.629Z,27.80
2023-06-07T10:32:35.000Z,27.87
2023-06-07T10:35:04.476Z,30.38
2023-06-07T10:37:35.163Z,30.15
2023-06-07T10:40:11.816Z,30.62
2023-06-07T10:42:42.288Z,29.22
2023-06-07T10:45:16.480Z,29.14
2023-06-07T10:47:46.911Z,28.81
2023-06-07T10:50:27.846Z,29.46
2023-06-07T10:52:58.205Z,29.02
2023-06-07T10:55:34.760Z,30.70
2023-06-07T10:58:03.106Z,29.98
2023-06-07T11:00:34.463Z,30.00
2023-06-07T11:03:06.279Z,30.40
2023-06-07T11:06:10.125Z,28.78
2023-06-07T11:08:39.438Z,28.90
2023-06-07T11:11:42.335Z,28.37
2023-06-07T11:14:12.996Z,29.77
2023-06-07T11:16:42.116Z,30.70
2023-06-07T11:19:14.321Z,29.50
2023-06-07T11:21:55.676Z,29.01
2023-06-07T11:24:24.874Z,29.58
2023-06-07T11:26:53.659Z,31.05
2023-06-07T11:29:22.856Z,30.01
2023-06-07T11:32:02.895Z,31.56
2023-06-07T11:34:32.854Z,30.53
2023-06-07T11:37:27.832Z,31.79
2023-06-07T11:40:00.841Z,31.47
2023-06-07T11:42:30.735Z,30.40
2023-06-07T11:45:00.038Z,31.24
2023-06-07T11:47:28.846Z,30.78
2023-06-07T11:49:57.631Z,30.92
2023-06-07T11:52:26.615Z,31.81
2023-06-07T11:54:55.303Z,32.66
2023-06-07T11:57:24.195Z,31.44
2023-06-07T11:59:53.907Z,31.38
2023-06-07T12:02:23.340Z,32.48
2023-06-07T12:04:52.207Z,31.76
2023-06-07T12:07:21.721Z,31.27
2023-06-07T12:09:50.782Z,31.06
2023-06-07T12:12:19.742Z,30.19
2023-06-07T12:14:52.698Z,29.40
2023-06-07T12:17:22.899Z,29.38
2023-06-07T12:19:51.423Z,27.77
2023-06-07T12:22:20.075Z,27.67
2023-06-07T12:24:49.386Z,28.81
2023-06-07T12:27:17.862Z,29.77
2023-06-07T12:29:46.553Z,29.98
2023-06-07T12:32:15.345Z,31.04
2023-06-07T12:34:45.533Z,29.89
2023-06-07T12:37:14.769Z,30.12
2023-06-07T12:39:43.869Z,29.55
2023-06-07T12:42:12.705Z,29.18
2023-06-07T12:44:41.358Z,29.52
2023-06-07T12:47:11.107Z,29.75
2023-06-07T12:49:39.552Z,28.18
2023-06-07T12:52:09.536Z,28.92
2023-06-07T12:54:38.247Z,27.34
2023-06-07T12:57:07.460Z,29.67
2023-06-07T12:59:36.340Z,28.38
2023-06-07T13:02:06.267Z,28.15
2023-06-07T13:04:34.580Z,28.20
2023-06-07T13:07:03.339Z,28.55
2023-06-07T13:09:32.526Z,29.07
2023-06-07T13:12:04.210Z,27.61
2023-06-07T13:14:32.769Z,27.52
2023-06-07T13:17:01.906Z,28.04
2023-06-07T13:19:30.876Z,26.72
2023-06-07T13:21:59.340Z,28.31
2023-06-07T13:25:28.241Z,29.72
2023-06-07T13:28:40.752Z,29.72
2023-06-07T13:31:09.442Z,28.74
2023-06-07T13:37:35.507Z,26.24
2023-06-07T13:40:04.829Z,27.10
2023-06-07T13:42:35.276Z,27.50
2023-06-07T13:45:05.082Z,26.74
2023-06-07T13:47:34.079Z,27.58
2023-06-07T13:50:03.657Z,26.69
2023-06-07T13:52:33.102Z,27.85
2023-06-07T13:55:01.745Z,27.42
2023-06-07T13:57:30.529Z,25.46
2023-06-07T14:00:00.965Z,25.38
2023-06-07T14:02:30.182Z,26.77
2023-06-07T14:05:01.891Z,27.11
2023-06-07T14:07:31.497Z,27.66
2023-06-07T14:09:59.884Z,26.96
2023-06-07T14:12:48.398Z,28.43
2023-06-07T14:15:17.023Z,27.24
2023-06-07T14:17:45.580Z,27.24
2023-06-07T14:20:15.648Z,27.86
2023-06-07T14:22:44.337Z,28.40
2023-06-07T14:25:13.737Z,27.48
2023-06-07T14:27:43.773Z,27.61
2023-06-07T14:30:12.864Z,27.40
2023-06-07T14:32:41.421Z,28.37
2023-06-07T14:35:10.389Z,27.21
2023-06-07T14:37:38.911Z,28.64
2023-06-07T14:40:08.857Z,27.27
2023-06-07T14:42:37.644Z,26.79
2023-06-07T14:45:07.488Z,26.51
2023-06-07T14:47:36.352Z,26.19
2023-06-07T14:50:05.578Z,26.62
2023-06-07T14:52:34.017Z,26.94
2023-06-07T14:55:02.697Z,26.85
2023-06-07T14:57:31.291Z,26.79
2023-06-07T14:59:59.702Z,27.06
2023-06-07T15:02:28.405Z,26.42
2023-06-07T15:04:57.378Z,27.18
2023-06-07T15:07:26.683Z,26.74
2023-06-07T15:09:55.246Z,26.69
2023-06-07T15:12:24.048Z,27.31
2023-06-07T15:14:52.520Z,27.07
2023-06-07T15:17:21.107Z,26.88
2023-06-07T15:19:50.145Z,26.67
2023-06-07T15:22:18.652Z,26.42
2023-06-07T15:24:46.994Z,25.86
2023-06-07T15:27:15.744Z,26.69
2023-06-07T15:29:44.342Z,26.10
2023-06-07T15:32:13.019Z,26.42
2023-06-07T15:34:46.317Z,26.49
2023-06-07T15:37:14.906Z,26.33
2023-06-07T15:39:47.629Z,26.44
2023-06-07T15:42:16.177Z,26.68
2023-06-07T15:44:46.922Z,26.98
2023-06-07T15:47:17.291Z,26.91
2023-06-07T15:49:45.754Z,27.43
2023-06-07T15:52:13.998Z,27.58
2023-06-07T15:54:42.693Z,27.36
2023-06-07T15:57:11.375Z,27.85
2023-06-07T15:59:40.392Z,27.79
2023-06-07T16:02:09.253Z,28.01
2023-06-07T16:04:37.692Z,27.71
2023-06-07T16:07:22.912Z,27.89
2023-06-07T16:09:51.394Z,28.55
2023-06-07T16:12:20.056Z,28.83
2023-06-07T16:14:48.946Z,28.66
2023-06-07T16:17:17.488Z,29.23
2023-06-07T16:19:46.453Z,29.59
2023-06-07T16:22:16.065Z,30.08
2023-06-07T16:24:46.414Z,30.46
2023-06-07T16:27:14.878Z,30.91
2023-06-07T16:29:43.857Z,30.59
2023-06-07T16:32:12.289Z,30.97
2023-06-07T16:34:40.767Z,31.26
2023-06-07T16:37:10.135Z,31.65
2023-06-07T16:39:39.432Z,31.40
2023-06-07T16:42:08.061Z,31.24
2023-06-07T16:44:36.806Z,31.77
2023-06-07T16:47:05.260Z,32.07
2023-06-07T16:49:34.799Z,31.54
2023-06-07T16:52:03.703Z,31.78
2023-06-07T16:54:32.187Z,32.38
2023-06-07T16:57:00.765Z,32.83
2023-06-07T16:59:29.872Z,33.38
2023-06-07T17:01:58.367Z,33.76
2023-06-07T17:04:27.132Z,34.42
2023-06-07T17:06:56.024Z,34.78
2023-06-07T17:09:24.708Z,34.88
2023-06-07T17:11:53.037Z,35.22
2023-06-07T17:14:22.185Z,35.35
2023-06-07T17:16:51.064Z,35.65
2023-06-07T17:19:20.295Z,35.88
2023-06-07T17:21:48.966Z,35.87
2023-06-07T17:24:20.881Z,36.26
2023-06-07T17:26:49.833Z,36.58
2023-06-07T17:29:28.525Z,36.78
2023-06-07T17:31:58.696Z,37.23
2023-06-07T17:34:27.673Z,37.74
2023-06-07T17:36:56.457Z,38.23
2023-06-07T17:39:25.139Z,38.27
2023-06-07T17:42:53.337Z,38.44
2023-06-07T17:45:42.771Z,39.48
2023-06-07T17:48:11.736Z,39.91
2023-06-07T17:50:46.645Z,40.14
2023-06-07T17:53:16.449Z,40.23
2023-06-07T17:56:44.660Z,40.74
2023-06-07T17:59:54.013Z,41.31
2023-06-07T18:02:22.450Z,41.67
2023-06-07T18:04:51.143Z,41.74
2023-06-07T18:08:19.522Z,42.14
2023-06-07T18:10:53.328Z,42.84
2023-06-07T18:13:31.813Z,43.13
2023-06-07T18:16:11.279Z,43.65
2023-06-07T18:18:56.172Z,43.89
2023-06-07T18:21:36.567Z,44.23
2023-06-07T18:24:13.482Z,44.56
2023-06-07T18:26:53.767Z,44.57
2023-06-07T18:29:34.516Z,44.96
2023-06-07T18:32:22.332Z,45.11
2023-06-07T18:35:04.189Z,45.44
2023-06-07T18:37:39.219Z,45.76
2023-06-07T18:41:15.063Z,46.23
2023-06-07T18:43:43.660Z,46.41
2023-06-07T18:46:12.062Z,46.57
2023-06-07T18:48:40.820Z,46.84
2023-06-07T18:51:09.808Z,46.77
2023-06-07T18:54:37.939Z,47.04
2023-06-07T18:57:07.557Z,47.55
2023-06-07T19:00:41.267Z,47.63
2023-06-07T19:03:37.744Z,47.96
2023-06-07T19:06:07.712Z,47.82
2023-06-07T19:09:35.978Z,48.05
2023-06-07T19:12:27.322Z,48.39
2023-06-07T19:14:57.908Z,48.43
2023-06-07T19:17:26.740Z,48.59
2023-06-07T19:19:57.644Z,48.93
2023-06-07T19:22:26.679Z,49.23
2023-06-07T19:24:56.237Z,49.60
2023-06-07T19:27:24.722Z,50.22
2023-06-07T19:29:53.404Z,50.35
2023-06-07T19:32:22.290Z,50.65
2023-06-07T19:34:51.632Z,51.78
2023-06-07T19:37:20.820Z,52.12
2023-06-07T19:39:49.893Z,51.98
2023-06-07T19:42:20.837Z,51.76
2023-06-07T19:44:50.308Z,51.72
2023-06-07T19:47:19.538Z,52.21
2023-06-07T19:49:48.434Z,52.50
2023-06-07T19:52:16.686Z,52.44
2023-06-07T19:54:45.145Z,52.57
2023-06-07T19:57:13.413Z,53.26
2023-06-07T19:59:42.369Z,53.44
2023-06-07T20:02:11.244Z,53.63
2023-06-07T20:04:41.724Z,53.87
2023-06-07T20:07:10.484Z,53.96
2023-06-07T20:09:40.389Z,54.21
2023-06-07T20:12:09.910Z,54.45
2023-06-07T20:14:41.158Z,55.56
2023-06-07T20:17:12.758Z,55.79
2023-06-07T20:19:41.510Z,56.04
2023-06-07T20:22:10.484Z,57.01
2023-06-07T20:24:39.173Z,56.39
2023-06-07T20:27:08.003Z,56.31
2023-06-07T20:29:37.675Z,57.14
2023-06-07T20:32:07.151Z,57.26
2023-06-07T20:34:36.630Z,57.19
2023-06-07T20:37:05.809Z,57.00
2023-06-07T20:39:34.467Z,57.00
2023-06-07T20:42:04.544Z,57.00
2023-06-07T20:44:47.838Z,57.25
2023-06-07T20:47:22.064Z,57.57
2023-06-07T20:49:52.293Z,57.77
2023-06-07T20:52:20.829Z,57.86
2023-06-07T20:54:49.536Z,58.12
2023-06-07T20:57:18.221Z,58.35
2023-06-07T20:59:47.636Z,58.98
2023-06-07T21:02:16.216Z,59.81
2023-06-07T21:04:45.011Z,60.25
2023-06-07T21:07:15.629Z,60.94
2023-06-07T21:09:44.318Z,60.39
2023-06-07T21:12:13.831Z,60.50
2023-06-07T21:14:42.396Z,61.00
2023-06-07T21:17:11.560Z,60.96
2023-06-07T21:19:39.988Z,61.18
2023-06-07T21:22:08.419Z,61.60
2023-06-07T21:24:37.161Z,62.09
2023-06-07T21:27:06.923Z,62.45
2023-06-07T21:29:35.204Z,63.15
2023-06-07T21:32:04.559Z,63.10
2023-06-07T21:34:33.238Z,63.59
2023-06-07T21:37:02.029Z,63.69
2023-06-07T21:39:30.818Z,64.22
2023-06-07T21:41:59.204Z,64.24
2023-06-07T21:44:27.578Z,64.32
2023-06-07T21:46:56.267Z,64.63
2023-06-07T21:49:24.867Z,65.31
2023-06-07T21:51:53.645Z,66.09
2023-06-07T21:54:22.124Z,65.92
2023-06-07T21:56:50.722Z,66.00
2023-06-07T21:59:19.401Z,67.29
2023-06-07T22:01:48.164Z,67.42
2023-06-07T22:04:17.415Z,67.16
2023-06-07T22:06:46.174Z,67.80
2023-06-07T22:09:14.962Z,67.72
2023-06-07T22:11:45.696Z,67.53
2023-06-07T22:14:14.911Z,68.36
2023-06-07T22:16:48.133Z,68.87
2023-06-07T22:19:20.294Z,68.76
2023-06-07T22:21:51.924Z,68.79
2023-06-07T22:24:20.805Z,68.62
2023-06-07T22:26:50.307Z,68.86
2023-06-07T22:29:18.961Z,69.36
2023-06-07T22:31:47.637Z,70.45
2023-06-07T22:34:19.662Z,69.70
2023-06-07T22:36:48.649Z,69.52
2023-06-07T22:39:17.128Z,70.12
2023-06-07T22:41:46.233Z,70.70
2023-06-07T22:44:14.919Z,71.50
2023-06-07T22:46:43.329Z,71.33
2023-06-07T22:49:12.995Z,71.26
2023-06-07T22:51:42.649Z,71.07
2023-06-07T22:54:11.224Z,71.62
2023-06-07T22:56:39.984Z,71.93
2023-06-07T22:59:08.482Z,71.51
2023-06-07T23:01:36.919Z,71.01
2023-06-07T23:04:05.617Z,70.84
2023-06-07T23:06:38.743Z,71.37
2023-06-07T23:09:07.460Z,71.49
2023-06-07T23:11:36.329Z,71.05
2023-06-07T23:14:04.797Z,70.62
2023-06-07T23:16:34.211Z,70.70
2023-06-07T23:19:05.036Z,71.02
2023-06-07T23:21:33.933Z,71.74
2023-06-07T23:24:02.728Z,72.40
2023-06-07T23:26:31.212Z,72.30
2023-06-07T23:28:59.890Z,71.09
2023-06-07T23:31:29.234Z,71.17
2023-06-07T23:33:57.978Z,71.76
2023-06-07T23:36:28.752Z,72.79
2023-06-07T23:38:59.556Z,73.10
2023-06-07T23:41:28.443Z,73.02
2023-06-07T23:43:56.871Z,72.76
2023-06-07T23:46:26.443Z,73.23
2023-06-07T23:48:54.911Z,72.38
2023-06-07T23:51:23.506Z,72.58
2023-06-07T23:53:51.959Z,73.07
2023-06-07T23:56:20.372Z,74.83
2023-06-07T23:58:48.886Z,75.58
